createdAt,value
2023-03-05T00:00:23.618Z,0
2023-03-05T00:02:49.597Z,0
2023-03-05T00:05:15.734Z,0
2023-03-05T00:07:41.883Z,0
2023-03-05T00:10:07.924Z,0
2023-03-05T00:12:34.044Z,0
2023-03-05T00:15:00.117Z,0
2023-03-05T00:17:26.216Z,0
2023-03-05T00:19:51.418Z,0
2023-03-05T00:22:17.405Z,0
2023-03-05T00:24:43.511Z,0
2023-03-05T00:27:09.640Z,0
2023-03-05T00:29:35.851Z,0
2023-03-05T00:32:01.947Z,0
2023-03-05T00:34:27.991Z,0
2023-03-05T00:36:54.038Z,0
2023-03-05T00:39:20.145Z,0
2023-03-05T00:41:46.250Z,0
2023-03-05T00:44:12.303Z,0
2023-03-05T00:46:38.498Z,0
2023-03-05T00:49:04.454Z,0
2023-03-05T00:51:29.538Z,0
2023-03-05T00:53:55.674Z,0
2023-03-05T00:56:21.737Z,0
2023-03-05T00:58:47.861Z,0
2023-03-05T01:01:13.905Z,0
2023-03-05T01:03:40.093Z,0
2023-03-05T01:06:06.127Z,0
2023-03-05T01:08:32.286Z,0
2023-03-05T01:10:58.378Z,0
2023-03-05T01:13:24.427Z,0
2023-03-05T01:15:50.540Z,0
2023-03-05T01:18:16.589Z,0
2023-03-05T01:20:42.853Z,0
2023-03-05T01:23:07.802Z,0
2023-03-05T01:25:33.901Z,0
2023-03-05T01:28:00.073Z,0
2023-03-05T01:30:26.160Z,0
2023-03-05T01:32:52.214Z,0
2023-03-05T01:35:17.471Z,0
2023-03-05T01:37:43.457Z,0
2023-03-05T01:40:09.474Z,0
2023-03-05T01:42:35.568Z,0
2023-03-05T01:45:01.664Z,0
2023-03-05T01:47:27.814Z,0
2023-03-05T01:49:53.976Z,0
2023-03-05T01:52:20.048Z,0
2023-03-05T01:54:46.090Z,0
2023-03-05T01:57:12.298Z,0
2023-03-05T01:59:38.353Z,0
2023-03-05T02:02:04.335Z,0
2023-03-05T02:04:30.451Z,0
2023-03-05T02:06:55.599Z,0
2023-03-05T02:09:21.689Z,0
2023-03-05T02:11:47.744Z,0
2023-03-05T02:14:13.856Z,0
2023-03-05T02:16:39.946Z,0
2023-03-05T02:19:06.102Z,0
2023-03-05T02:21:32.202Z,0
2023-03-05T02:23:58.223Z,0
2023-03-05T02:26:24.404Z,0
2023-03-05T02:28:50.433Z,0
2023-03-05T02:31:16.577Z,0
2023-03-05T02:33:42.661Z,0
2023-03-05T02:36:08.732Z,0
2023-03-05T02:38:33.849Z,0
2023-03-05T02:41:00.005Z,0
2023-03-05T02:43:26.014Z,0
2023-03-05T02:45:52.121Z,0
2023-03-05T02:48:18.197Z,0
2023-03-05T02:50:44.319Z,0
2023-03-05T02:53:10.415Z,0
2023-03-05T02:55:36.497Z,0
2023-03-05T02:58:02.671Z,0
2023-03-05T03:00:28.831Z,0
2023-03-05T03:02:54.795Z,0
2023-03-05T03:05:20.889Z,0
2023-03-05T03:07:47.001Z,0
2023-03-05T03:10:12.120Z,0
2023-03-05T03:12:38.294Z,0
2023-03-05T03:15:04.465Z,0
2023-03-05T03:19:56.487Z,0
2023-03-05T03:22:22.581Z,0
2023-03-05T03:24:48.680Z,0
2023-03-05T03:27:14.776Z,0
2023-03-05T03:29:40.906Z,0
2023-03-05T03:32:06.976Z,0
2023-03-05T03:34:33.088Z,0
2023-03-05T03:36:59.166Z,0
2023-03-05T03:39:25.315Z,0
2023-03-05T03:41:50.432Z,0
2023-03-05T03:44:16.478Z,0
2023-03-05T03:46:42.582Z,0
2023-03-05T03:49:08.691Z,0
2023-03-05T03:51:34.764Z,0
2023-03-05T03:54:00.862Z,0
2023-03-05T03:56:26.984Z,0
2023-03-05T03:58:53.106Z,0
2023-03-05T04:01:19.142Z,0
2023-03-05T04:03:45.254Z,0
2023-03-05T04:06:11.405Z,0
2023-03-05T04:08:37.490Z,0
2023-03-05T04:11:03.559Z,0
2023-03-05T04:13:28.661Z,0
2023-03-05T04:15:54.748Z,0
2023-03-05T04:18:20.867Z,0
2023-03-05T04:20:46.939Z,0
2023-03-05T04:23:13.035Z,0
2023-03-05T04:25:39.189Z,0
2023-03-05T04:28:05.236Z,0
2023-03-05T04:30:31.334Z,0
2023-03-05T04:32:57.401Z,0
2023-03-05T04:35:23.534Z,0
2023-03-05T04:37:49.659Z,0
2023-03-05T04:40:15.708Z,0
2023-03-05T04:42:41.846Z,0
2023-03-05T04:45:06.929Z,0
2023-03-05T04:47:33.015Z,0
2023-03-05T04:49:59.093Z,0
2023-03-05T04:52:25.210Z,0
2023-03-05T04:54:51.353Z,0
2023-03-05T04:57:17.416Z,0
2023-03-05T04:59:43.527Z,0
2023-03-05T05:02:09.621Z,0
2023-03-05T05:04:35.693Z,0
2023-03-05T05:07:01.784Z,0
2023-03-05T05:09:27.886Z,0
2023-03-05T05:11:54.026Z,0
2023-03-05T05:14:20.070Z,0
2023-03-05T05:16:45.216Z,0
2023-03-05T05:19:11.282Z,0
2023-03-05T05:21:37.380Z,0
2023-03-05T05:24:03.470Z,0
2023-03-05T05:26:29.608Z,0
2023-03-05T05:28:55.669Z,0
2023-03-05T05:31:21.752Z,0
2023-03-05T05:33:47.920Z,0
2023-03-05T05:36:13.978Z,4
2023-03-05T05:38:40.069Z,0
2023-03-05T05:41:06.196Z,4
2023-03-05T05:43:32.362Z,4
2023-03-05T05:45:58.358Z,8
2023-03-05T05:48:23.464Z,16
2023-03-05T05:50:49.571Z,16
2023-03-05T05:53:15.670Z,20
2023-03-05T05:55:41.772Z,28
2023-03-05T05:58:07.858Z,44
2023-03-05T06:00:33.955Z,40
2023-03-05T06:03:00.069Z,48
2023-03-05T06:05:26.146Z,68
2023-03-05T06:07:52.404Z,84
2023-03-05T06:10:18.342Z,100
2023-03-05T06:12:44.443Z,124
2023-03-05T06:15:10.543Z,144
2023-03-05T06:17:36.632Z,156
2023-03-05T06:20:01.765Z,196
2023-03-05T06:22:27.828Z,228
2023-03-05T06:24:53.945Z,240
2023-03-05T06:27:20.027Z,341
2023-03-05T06:29:46.120Z,401
2023-03-05T06:32:12.233Z,449
2023-03-05T06:34:38.408Z,473
2023-03-05T06:37:04.535Z,505
2023-03-05T06:39:30.568Z,594
2023-03-05T06:41:56.685Z,594
2023-03-05T06:44:22.705Z,538
2023-03-05T06:46:48.818Z,618
2023-03-05T06:49:14.919Z,674
2023-03-05T06:51:40.006Z,783
2023-03-05T06:54:06.161Z,815
2023-03-05T06:56:32.295Z,546
2023-03-05T06:58:58.453Z,775
2023-03-05T07:01:24.408Z,911
2023-03-05T07:03:50.529Z,766
2023-03-05T07:06:16.615Z,871
2023-03-05T07:08:42.718Z,919
2023-03-05T07:11:08.798Z,1064
2023-03-05T07:13:34.883Z,939
2023-03-05T07:16:00.981Z,1148
2023-03-05T07:18:27.067Z,1168
2023-03-05T07:20:53.168Z,1144
2023-03-05T07:23:18.284Z,1136
2023-03-05T07:25:44.382Z,1196
2023-03-05T07:28:10.563Z,1272
2023-03-05T07:30:36.572Z,1357
2023-03-05T07:33:02.711Z,1429
2023-03-05T07:35:28.816Z,1570
2023-03-05T07:37:54.857Z,1598
2023-03-05T07:40:20.967Z,1682
2023-03-05T07:42:47.075Z,1690
2023-03-05T07:45:13.257Z,1493
2023-03-05T07:47:39.258Z,1433
2023-03-05T07:50:05.346Z,1550
2023-03-05T07:52:31.443Z,1618
2023-03-05T07:54:56.557Z,1578
2023-03-05T07:57:22.683Z,1594
2023-03-05T07:59:48.826Z,1574
2023-03-05T08:02:15.019Z,1517
2023-03-05T08:04:41.168Z,1425
2023-03-05T08:07:07.124Z,1305
2023-03-05T08:09:33.155Z,1256
2023-03-05T08:11:59.250Z,1401
2023-03-05T08:14:25.364Z,1533
2023-03-05T08:16:51.422Z,1782
2023-03-05T08:19:17.555Z,1955
2023-03-05T08:21:43.640Z,2244
2023-03-05T08:24:09.857Z,2369
2023-03-05T08:26:34.856Z,2537
2023-03-05T08:29:00.937Z,2525
2023-03-05T08:31:27.019Z,2642
2023-03-05T08:33:53.142Z,2682
2023-03-05T08:36:19.217Z,2726
2023-03-05T08:38:45.372Z,2710
2023-03-05T08:41:11.402Z,2847
2023-03-05T08:43:37.494Z,2915
2023-03-05T08:46:03.693Z,3088
2023-03-05T08:48:29.729Z,3140
2023-03-05T08:50:55.773Z,3248
2023-03-05T08:53:21.942Z,3112
2023-03-05T08:55:47.968Z,2999
2023-03-05T08:58:13.096Z,2991
2023-03-05T09:00:39.189Z,2891
2023-03-05T09:03:05.281Z,2734
2023-03-05T09:05:31.355Z,2570
2023-03-05T09:07:57.476Z,2529
2023-03-05T09:10:23.567Z,2730
2023-03-05T09:12:49.652Z,2770
2023-03-05T09:15:15.775Z,2762
2023-03-05T09:17:41.906Z,2582
2023-03-05T09:20:07.937Z,2449
2023-03-05T09:22:34.070Z,2341
2023-03-05T09:25:00.200Z,2357
2023-03-05T09:27:26.246Z,2473
2023-03-05T09:29:51.352Z,2481
2023-03-05T09:32:17.457Z,2457
2023-03-05T09:34:43.537Z,2545
2023-03-05T09:37:09.637Z,2718
2023-03-05T09:39:35.744Z,2714
2023-03-05T09:42:01.818Z,2590
2023-03-05T09:44:27.019Z,2562
2023-03-05T09:46:53.059Z,2650
2023-03-05T09:49:19.133Z,2726
2023-03-05T09:51:45.235Z,2939
2023-03-05T09:54:11.430Z,3035
2023-03-05T09:56:37.468Z,3377
2023-03-05T09:59:03.511Z,3405
2023-03-05T10:01:29.634Z,3638
2023-03-05T10:03:55.722Z,4180
2023-03-05T10:06:21.801Z,4834
2023-03-05T10:08:47.929Z,5208
2023-03-05T10:11:14.000Z,5248
2023-03-05T10:13:40.106Z,5172
2023-03-05T10:16:05.273Z,4987
2023-03-05T10:18:31.302Z,5003
2023-03-05T10:20:57.384Z,4871
2023-03-05T10:23:23.491Z,4770
2023-03-05T10:25:49.605Z,4610
2023-03-05T10:28:15.686Z,4618
2023-03-05T10:30:41.779Z,4714
2023-03-05T10:33:07.933Z,4585
2023-03-05T10:35:33.974Z,4144
2023-03-05T10:38:00.057Z,4075
2023-03-05T10:40:26.212Z,3967
2023-03-05T10:42:52.260Z,3879
2023-03-05T10:45:18.479Z,3730
2023-03-05T10:47:43.507Z,3638
2023-03-05T10:50:09.567Z,3606
2023-03-05T10:52:35.672Z,3397
2023-03-05T10:55:01.751Z,3200
2023-03-05T10:57:27.844Z,3051
2023-03-05T10:59:53.943Z,3184
2023-03-05T11:02:20.033Z,3682
2023-03-05T11:04:46.141Z,4357
2023-03-05T11:07:12.242Z,4891
2023-03-05T11:09:38.320Z,5702
2023-03-05T11:12:04.406Z,5826
2023-03-05T11:14:30.495Z,5621
2023-03-05T11:16:56.610Z,5597
2023-03-05T11:19:21.885Z,5738
2023-03-05T11:21:47.813Z,5907
2023-03-05T11:24:13.925Z,5541
2023-03-05T11:26:40.006Z,5188
2023-03-05T11:29:06.125Z,4887
2023-03-05T11:31:32.220Z,4766
2023-03-05T11:33:58.293Z,4638
2023-03-05T11:36:24.390Z,4810
2023-03-05T11:38:50.479Z,5461
2023-03-05T11:41:16.582Z,5521
2023-03-05T11:43:42.816Z,5911
2023-03-05T11:46:08.778Z,5786
2023-03-05T11:48:34.869Z,5389
2023-03-05T11:50:59.980Z,5063
2023-03-05T11:53:26.096Z,4622
2023-03-05T11:55:52.296Z,4236
2023-03-05T11:58:18.329Z,4212
2023-03-05T12:00:44.369Z,3778
2023-03-05T12:03:10.479Z,3834
2023-03-05T12:05:36.562Z,3690
2023-03-05T12:08:02.663Z,3702
2023-03-05T12:10:28.774Z,3794
2023-03-05T12:12:54.868Z,4059
2023-03-05T12:15:20.957Z,4043
2023-03-05T12:17:47.033Z,4525
2023-03-05T12:20:13.151Z,4449
2023-03-05T12:22:38.246Z,4545
2023-03-05T12:25:04.354Z,4425
2023-03-05T12:27:30.438Z,4581
2023-03-05T12:29:56.710Z,4762
2023-03-05T12:32:22.663Z,4497
2023-03-05T12:34:48.723Z,4995
2023-03-05T12:37:14.980Z,4915
2023-03-05T12:39:40.924Z,4513
2023-03-05T12:42:07.032Z,4750
2023-03-05T12:44:33.159Z,4794
2023-03-05T12:46:59.200Z,4373
2023-03-05T12:49:25.499Z,3401
2023-03-05T12:51:51.409Z,3469
2023-03-05T12:54:16.534Z,3316
2023-03-05T12:56:42.604Z,3389
2023-03-05T12:59:08.699Z,3337
2023-03-05T13:01:34.953Z,3284
2023-03-05T13:04:00.949Z,3043
2023-03-05T13:06:27.033Z,2855
2023-03-05T13:08:53.088Z,2863
2023-03-05T13:11:19.232Z,2690
2023-03-05T13:13:45.425Z,2574
2023-03-05T13:16:11.366Z,2465
2023-03-05T13:18:37.473Z,2594
2023-03-05T13:21:03.690Z,3092
2023-03-05T13:23:29.756Z,3067
2023-03-05T13:25:54.900Z,3160
2023-03-05T13:28:20.990Z,2927
2023-03-05T13:30:47.040Z,2823
2023-03-05T13:33:13.049Z,2979
2023-03-05T13:35:39.216Z,3168
2023-03-05T13:38:05.249Z,3345
2023-03-05T13:40:31.514Z,3409
2023-03-05T13:42:57.580Z,3698
2023-03-05T13:45:23.603Z,3577
2023-03-05T13:47:49.641Z,3260
2023-03-05T13:50:15.752Z,3650
2023-03-05T13:52:41.850Z,3778
2023-03-05T13:55:07.922Z,3389
2023-03-05T13:57:33.123Z,3200
2023-03-05T13:59:59.261Z,2867
2023-03-05T14:02:25.253Z,2545
2023-03-05T14:04:51.389Z,1714
2023-03-05T14:07:17.483Z,1281
2023-03-05T14:09:43.630Z,1313
2023-03-05T14:12:09.770Z,2722
2023-03-05T14:14:35.837Z,3063
2023-03-05T14:17:01.795Z,2991
2023-03-05T14:19:27.910Z,2529
2023-03-05T14:21:54.012Z,2658
2023-03-05T14:24:20.097Z,2184
2023-03-05T14:26:46.230Z,2220
2023-03-05T14:29:11.315Z,2276
2023-03-05T14:31:37.451Z,1823
2023-03-05T14:34:03.489Z,1493
2023-03-05T14:36:29.625Z,2481
2023-03-05T14:38:55.687Z,2682
2023-03-05T14:41:21.797Z,2140
2023-03-05T14:43:48.004Z,1995
2023-03-05T14:46:14.152Z,2015
2023-03-05T14:48:40.250Z,1823
2023-03-05T14:51:06.304Z,1710
2023-03-05T14:53:32.276Z,1686
2023-03-05T14:55:58.453Z,1586
2023-03-05T14:58:24.463Z,1606
2023-03-05T15:00:49.566Z,1481
2023-03-05T15:03:15.681Z,1558
2023-03-05T15:05:41.760Z,1397
2023-03-05T15:08:07.936Z,1321
2023-03-05T15:10:34.060Z,1397
2023-03-05T15:13:00.200Z,1453
2023-03-05T15:15:26.317Z,1574
2023-03-05T15:17:52.321Z,1477
2023-03-05T15:20:18.324Z,1148
2023-03-05T15:22:44.433Z,1208
2023-03-05T15:25:10.527Z,1204
2023-03-05T15:27:36.674Z,1088
2023-03-05T15:30:02.764Z,1285
2023-03-05T15:32:27.828Z,1244
2023-03-05T15:34:53.911Z,1140
2023-03-05T15:37:20.060Z,971
2023-03-05T15:39:46.198Z,1028
2023-03-05T15:42:12.306Z,879
2023-03-05T15:44:38.402Z,863
2023-03-05T15:47:04.415Z,871
2023-03-05T15:49:30.628Z,835
2023-03-05T15:51:56.632Z,863
2023-03-05T15:54:22.672Z,811
2023-03-05T15:56:48.796Z,779
2023-03-05T15:59:15.021Z,698
2023-03-05T16:01:41.062Z,686
2023-03-05T16:04:06.069Z,638
2023-03-05T16:06:32.166Z,562
2023-03-05T16:08:58.278Z,497
2023-03-05T16:11:24.439Z,441
2023-03-05T16:13:50.565Z,397
2023-03-05T16:16:16.560Z,373
2023-03-05T16:18:42.809Z,337
2023-03-05T16:21:08.809Z,313
2023-03-05T16:23:34.903Z,281
2023-03-05T16:26:01.007Z,265
2023-03-05T16:28:27.117Z,236
2023-03-05T16:30:53.199Z,212
2023-03-05T16:33:19.245Z,196
2023-03-05T16:35:44.453Z,180
2023-03-05T16:38:10.500Z,152
2023-03-05T16:40:36.630Z,136
2023-03-05T16:43:02.688Z,132
2023-03-05T16:45:28.885Z,120
2023-03-05T16:47:54.917Z,112
2023-03-05T16:50:21.005Z,96
2023-03-05T16:52:47.071Z,92
2023-03-05T16:55:13.142Z,80
2023-03-05T16:57:39.206Z,72
2023-03-05T17:00:05.331Z,64
2023-03-05T17:02:31.421Z,56
2023-03-05T17:04:57.599Z,48
2023-03-05T17:07:22.777Z,36
2023-03-05T17:09:48.858Z,28
2023-03-05T17:12:14.920Z,24
2023-03-05T17:14:40.890Z,20
2023-03-05T17:17:07.126Z,16
2023-03-05T17:19:33.078Z,12
2023-03-05T17:21:59.164Z,8
2023-03-05T17:24:25.340Z,8
2023-03-05T17:26:51.380Z,4
2023-03-05T17:29:17.541Z,0
2023-03-05T17:31:43.560Z,0
2023-03-05T17:34:09.772Z,0
2023-03-05T17:36:35.861Z,0
2023-03-05T17:39:00.945Z,0
2023-03-05T17:41:27.029Z,0
2023-03-05T17:43:53.146Z,0
2023-03-05T17:46:19.200Z,0
2023-03-05T17:48:45.300Z,0
2023-03-05T17:51:11.380Z,0
2023-03-05T17:53:36.504Z,0
2023-03-05T17:56:02.574Z,0
2023-03-05T17:58:28.647Z,0
2023-03-05T18:00:54.749Z,0
2023-03-05T18:03:20.833Z,0
2023-03-05T18:05:46.936Z,0
2023-03-05T18:08:13.173Z,0
2023-03-05T18:10:39.135Z,0
2023-03-05T18:13:05.209Z,0
2023-03-05T18:15:31.343Z,0
2023-03-05T18:17:57.512Z,0
2023-03-05T18:22:49.697Z,0
2023-03-05T18:25:14.715Z,0
2023-03-05T18:27:40.852Z,0
2023-03-05T18:30:06.915Z,0
2023-03-05T18:32:33.007Z,0
2023-03-05T18:34:59.094Z,0
2023-03-05T18:37:25.267Z,0
2023-03-05T18:39:51.296Z,0
2023-03-05T18:42:17.377Z,0
2023-03-05T18:44:43.555Z,0
2023-03-05T18:47:09.596Z,0
2023-03-05T18:49:35.693Z,0
2023-03-05T18:52:01.767Z,0
2023-03-05T18:54:27.868Z,0
2023-03-05T18:56:52.974Z,0
2023-03-05T18:59:19.081Z,0
2023-03-05T19:01:45.188Z,0
2023-03-05T19:04:11.259Z,0
2023-03-05T19:06:37.353Z,0
2023-03-05T19:09:03.480Z,0
2023-03-05T19:11:29.661Z,0
2023-03-05T19:13:55.663Z,0
2023-03-05T19:16:21.823Z,0
2023-03-05T19:18:47.865Z,0
2023-03-05T19:21:13.985Z,0
2023-03-05T19:23:40.100Z,0
2023-03-05T19:26:06.120Z,0
2023-03-05T19:28:32.257Z,0
2023-03-05T19:30:57.360Z,0
2023-03-05T19:33:23.515Z,0
2023-03-05T19:35:49.625Z,0
2023-03-05T19:38:15.817Z,0
2023-03-05T19:40:41.938Z,0
2023-03-05T19:43:07.971Z,0
2023-03-05T19:45:34.138Z,0
2023-03-05T19:48:00.110Z,0
2023-03-05T19:50:26.236Z,0
2023-03-05T19:52:52.334Z,0
2023-03-05T19:55:18.293Z,0
2023-03-05T19:57:44.447Z,0
2023-03-05T20:00:10.520Z,0
2023-03-05T20:02:35.659Z,0
2023-03-05T20:05:01.816Z,0
2023-03-05T20:07:27.838Z,0
2023-03-05T20:09:53.887Z,0
2023-03-05T20:12:19.989Z,0
2023-03-05T20:14:46.283Z,0
2023-03-05T20:17:12.286Z,0
2023-03-05T20:19:38.354Z,0
2023-03-05T20:22:04.447Z,0
2023-03-05T20:24:30.479Z,0
2023-03-05T20:26:56.562Z,0
2023-03-05T20:29:22.685Z,0
2023-03-05T20:31:48.785Z,0
2023-03-05T20:34:13.944Z,0
2023-03-05T20:36:39.967Z,0
2023-03-05T20:39:06.072Z,0
2023-03-05T20:41:32.192Z,0
2023-03-05T20:43:58.290Z,0
2023-03-05T20:46:24.345Z,0
2023-03-05T20:48:50.505Z,0
2023-03-05T20:51:16.665Z,0
2023-03-05T20:53:42.649Z,0
2023-03-05T20:56:08.744Z,0
2023-03-05T20:58:34.884Z,0
2023-03-05T21:01:00.923Z,0
2023-03-05T21:03:27.028Z,0
2023-03-05T21:05:53.115Z,0
2023-03-05T21:08:19.234Z,0
2023-03-05T21:10:45.383Z,0
2023-03-05T21:13:11.511Z,0
2023-03-05T21:15:36.558Z,0
2023-03-05T21:18:02.633Z,0
2023-03-05T21:20:28.863Z,0
2023-03-05T21:22:54.852Z,0
2023-03-05T21:25:20.930Z,0
2023-03-05T21:27:47.048Z,0
2023-03-05T21:30:13.122Z,0
2023-03-05T21:32:39.236Z,0
2023-03-05T21:35:05.291Z,0
2023-03-05T21:37:31.376Z,0
2023-03-05T21:39:57.497Z,0
2023-03-05T21:42:23.632Z,0
2023-03-05T21:44:49.770Z,0
2023-03-05T21:47:14.809Z,0
2023-03-05T21:49:40.927Z,0
2023-03-05T21:52:07.139Z,0
2023-03-05T21:54:33.081Z,0
2023-03-05T21:56:59.314Z,0
2023-03-05T21:59:25.267Z,0
2023-03-05T22:01:51.406Z,0
2023-03-05T22:04:17.472Z,0
2023-03-05T22:06:43.567Z,0
2023-03-05T22:09:09.692Z,0
2023-03-05T22:11:35.811Z,0
2023-03-05T22:14:01.877Z,0
2023-03-05T22:16:27.987Z,0
2023-03-05T22:18:53.062Z,0
2023-03-05T22:21:19.142Z,0
2023-03-05T22:23:45.236Z,0
2023-03-05T22:26:11.333Z,0
2023-03-05T22:28:37.441Z,0
2023-03-05T22:31:03.569Z,0
2023-03-05T22:33:29.699Z,0
2023-03-05T22:35:55.731Z,0
2023-03-05T22:38:21.945Z,0
2023-03-05T22:40:47.948Z,0
2023-03-05T22:43:14.053Z,0
2023-03-05T22:45:40.212Z,0
2023-03-05T22:48:06.240Z,0
2023-03-05T22:50:31.377Z,0
2023-03-05T22:52:57.589Z,0
2023-03-05T22:55:23.682Z,0
2023-03-05T22:57:49.705Z,0
2023-03-05T23:00:15.709Z,0
2023-03-05T23:02:41.971Z,0
2023-03-05T23:05:07.960Z,0
2023-03-05T23:07:34.033Z,0
2023-03-05T23:10:00.135Z,0
2023-03-05T23:12:26.230Z,0
2023-03-05T23:14:52.298Z,0
2023-03-05T23:17:18.393Z,0
2023-03-05T23:19:44.491Z,0
2023-03-05T23:22:09.650Z,0
2023-03-05T23:24:35.716Z,0
2023-03-05T23:27:01.811Z,0
2023-03-05T23:29:27.949Z,0
2023-03-05T23:31:54.011Z,0
2023-03-05T23:34:20.098Z,0
2023-03-05T23:36:46.206Z,0
2023-03-05T23:41:38.390Z,0
2023-03-05T23:44:04.497Z,0
2023-03-05T23:46:30.584Z,0
2023-03-05T23:48:56.743Z,0
2023-03-05T23:51:22.900Z,0
2023-03-05T23:53:47.893Z,0
2023-03-05T23:56:13.979Z,0
2023-03-05T23:58:40.141Z,0
